Port Lavaca, TX

1:51 PM CDT on September 01, 2014 (GMT -0500)
J.S. Farms - 7 miles west of Port Lavaca | Change Station
CLOSE
Current Station
Personal Weather Station
Location: Port Lavaca, TX
Elevation: 43 ft
Nearby Weather Stations

Elev 43 ft 28.60 °N, 96.73 °W | Updated 4 minutes ago

Scattered Clouds
Scattered Clouds
90.7 °F
Feels Like 104 °F
N
10.0
Wind Variable Wind from SSE
Gusts 15.0 mph

Today
High -- | Low -- °F
--% Chance of Precip.
Yesterday
High -- | Low -- °F
Precip. -- in
7:04 AM 7:48 PM
Waxing Crescent, 43% visible
Pressure 29.93 in
Visibility 10.0 miles
Clouds Scattered Clouds 3200 ft
Scattered Clouds 3800 ft
Scattered Clouds 4400 ft
Heat Index 104 °F
Dew Point 77 °F
Humidity 64%
Rainfall 0.00 in
Snow Depth Not available.
UV 9 out of 12
Pollen 7.50 out of 12
Ozone Good
Flu Activity Not available.
METAR KPKV 011835Z AUTO 14014G17KT 10SM SCT032 SCT038 SCT044 33/24 A2993 RMK AO2 T03260238

More Conditions Fewer Conditions

Pressure 29.93 in
Visibility 10.0 miles
Clouds Scattered Clouds 3200 ft
Scattered Clouds 3800 ft
Scattered Clouds 4400 ft
Heat Index 104 °F
Dew Point 77 °F
Humidity 64%
Rainfall 0.00 in
Snow Depth Not available.
UV 9 out of 12
Pollen 7.50 out of 12
Ozone Good
Flu Activity Not available.
METAR KPKV 011835Z AUTO 14014G17KT 10SM SCT032 SCT038 SCT044 33/24 A2993 RMK AO2 T03260238

More Conditions Fewer Conditions

Nowcast | as of 1:25 PM CDT on September 1, 2014

Isolated showers will affect the coastal waters...the coastal Bend...the coastal plains...and the Victoria Crossroads this afternoon. Through 3 PM CDT...rainfall amounts will generally be less than a tenth of an inch.

×

10-Day Weather Forecast

Almanac

Astronomy

Sep. 01, 2014 Rise Set
Actual Time 7:04 AM CDT 7:48 PM CDT
Civil Twilight 6:40 AM CDT 8:12 PM CDT
Nautical Twilight 6:12 AM CDT 8:40 PM CDT
Astronomical Twilight 5:43 AM CDT 9:08 PM CDT
Moon 1:19 PM CDT No Moon Set
Length of Visible Light 13h 31m
Length of Day
12h 43m
Tomorrow will be 1m 39s shorter.
Waxing Crescent, 43% of the Moon is Illuminated
Today
Waxing Crescent
Sep 2
First Quarter
Sep 8
Full
Sep 15
Last Quarter
Sep 24
New

Today's Extremes

State Highs State Lows

Community

WunderPhotos

Upload Photos

1,749,359 photos uploaded!

Nearby

Air Quality

  Air Quality AQ Index Pollutant
Yesterday Good
OZONE
Current Good
OZONE
Monday Good
OZONE
Monday Good
PM10
Tuesday Good
OZONE
Tuesday Good
PM10
Wednesday Good
OZONE
Wednesday Good
PM10
Thursday Good
OZONE
Thursday Good
PM10

Snow Depth

Station Depth Elevation
No new snow has been reported.

Earthquake Activity

City Distance Mag. Time & Date
No recent earthquake activity has been reported nearby.
Minimum magnitude displayed is 2.5.

Coastal Water Temperatures

Place Temperature
Seadrift, TX 84.9 °F
Rockport, TX 84.9 °F
USCG Freeport, TX 84.0 °F

Nearby Weather Stations